Time;durP1;ratioP1;P1;durP2;ratioP2;P2;SDS_P1;SDS_P2;PMS_P1;PMS_P2;Temp;Humidity;BMP_temperature;BMP_pressure;BME280_temperature;BME280_humidity;BME280_pressure;Samples;Min_cycle;Max_cycle;Signal;HPM_P1;HPM_P2
2021/11/19 00:02:14;;;;;;;0.22;0.22;;;;;;;9.78;100.00;101427.38;5063283;28;20036;-81
2021/11/19 00:04:47;;;;;;;0.30;0.30;;;;;;;9.78;100.00;101432.00;5058628;28;20056;-81
2021/11/19 00:07:20;;;;;;;0.30;0.30;;;;;;;9.80;100.00;101421.69;5061940;28;20040;-81
2021/11/19 00:09:55;;;;;;;0.22;0.22;;;;;;;9.86;100.00;101426.09;5064043;28;20433;-84
2021/11/19 00:12:28;;;;;;;0.30;0.30;;;;;;;9.84;100.00;101434.50;5068720;28;20732;-82
2021/11/19 00:15:02;;;;;;;0.20;0.20;;;;;;;9.83;100.00;101430.16;5064727;28;20487;-83
2021/11/19 00:17:36;;;;;;;0.20;0.20;;;;;;;9.83;100.00;101429.31;5061170;28;20048;-81
2021/11/19 00:20:13;;;;;;;0.30;0.30;;;;;;;9.88;100.00;101429.38;5057363;28;20497;-83
2021/11/19 00:22:47;;;;;;;0.20;0.20;;;;;;;9.88;100.00;101429.38;5060740;28;20048;-81
2021/11/19 00:25:16;;;;;;;0.20;0.20;;;;;;;9.91;100.00;101430.75;5062721;28;20056;-81
2021/11/19 00:27:50;;;;;;;0.30;0.30;;;;;;;9.94;100.00;101432.97;5055835;28;20068;-82
2021/11/19 00:30:24;;;;;;;0.20;0.20;;;;;;;10.00;100.00;101435.47;5059961;28;20045;-82
2021/11/19 00:32:58;;;;;;;0.20;0.20;;;;;;;10.00;100.00;101418.34;5058095;28;20058;-83
2021/11/19 00:35:32;;;;;;;0.20;0.20;;;;;;;10.04;100.00;101422.19;5066101;28;20056;-82
2021/11/19 00:38:07;;;;;;;0.20;0.20;;;;;;;10.00;100.00;101415.63;5062665;28;20052;-83
2021/11/19 00:40:45;;;;;;;0.20;0.20;;;;;;;10.07;100.00;101415.41;5064593;28;20045;-83
2021/11/19 00:43:19;;;;;;;0.30;0.30;;;;;;;10.10;100.00;101407.56;5076337;28;20049;-83
2021/11/19 00:45:53;;;;;;;0.30;0.30;;;;;;;10.07;100.00;101404.50;5073710;28;20050;-83
2021/11/19 00:48:24;;;;;;;0.20;0.20;;;;;;;10.11;100.00;101411.06;5067281;28;20060;-83
2021/11/19 00:51:00;;;;;;;0.22;0.22;;;;;;;10.09;100.00;101418.69;5053976;28;20056;-83
2021/11/19 00:53:35;;;;;;;0.30;0.30;;;;;;;9.99;100.00;101409.34;5058369;28;20037;-83
2021/11/19 00:56:13;;;;;;;0.30;0.30;;;;;;;10.08;100.00;101419.75;5056432;28;20051;-82
2021/11/19 00:58:48;;;;;;;0.30;0.30;;;;;;;10.14;100.00;101416.84;5060950;28;20059;-82
2021/11/19 01:01:25;;;;;;;0.20;0.20;;;;;;;10.09;100.00;101424.94;5064375;28;20052;-82
2021/11/19 01:03:59;;;;;;;0.20;0.20;;;;;;;10.02;100.00;101414.28;5062158;28;20056;-82
2021/11/19 01:06:28;;;;;;;0.25;0.25;;;;;;;10.13;100.00;101433.41;5063614;28;20059;-83
2021/11/19 01:09:05;;;;;;;0.30;0.30;;;;;;;10.14;100.00;101441.31;5062033;28;20048;-83
2021/11/19 01:11:42;;;;;;;;;;;;;;;10.13;100.00;101445.09;5065356;28;20044;-83
2021/11/19 01:14:17;;;;;;;0.20;0.20;;;;;;;10.17;100.00;101429.91;5067397;28;19936;-82
2021/11/19 01:16:54;;;;;;;0.22;0.22;;;;;;;10.16;100.00;101432.91;5061606;28;20064;-82
2021/11/19 01:19:27;;;;;;;0.30;0.30;;;;;;;10.16;100.00;101444.63;5065455;28;20052;-83
2021/11/19 01:22:06;;;;;;;0.20;0.20;;;;;;;10.13;100.00;101453.25;5066958;28;20049;-82
2021/11/19 01:24:35;;;;;;;0.22;0.22;;;;;;;10.19;100.00;101445.97;5059959;28;20045;-82
2021/11/19 01:27:07;;;;;;;0.25;0.25;;;;;;;10.17;100.00;101456.31;5060992;28;20056;-83
2021/11/19 01:29:35;;;;;;;0.25;0.25;;;;;;;10.21;100.00;101447.34;5069693;28;20481;-83
2021/11/19 01:32:19;;;;;;;0.20;0.20;;;;;;;10.26;100.00;101460.19;5062603;28;20055;-82
2021/11/19 01:35:28;;;;;;;0.20;0.20;;;;;;;10.26;100.00;101453.91;5088938;28;20380;-83
2021/11/19 01:38:21;;;;;;;0.20;0.20;;;;;;;10.26;100.00;101454.75;5069362;28;20064;-83
2021/11/19 01:41:07;;;;;;;0.20;0.20;;;;;;;10.29;100.00;101451.50;5069665;28;20516;-82
2021/11/19 01:43:43;;;;;;;0.30;0.30;;;;;;;10.38;100.00;101450.00;5064635;28;20063;-82
2021/11/19 01:46:19;;;;;;;0.28;0.28;;;;;;;10.29;100.00;101456.13;5068243;28;20863;-82
2021/11/19 01:48:57;;;;;;;0.30;0.30;;;;;;;10.32;100.00;101461.88;5065793;28;20057;-83
2021/11/19 01:51:37;;;;;;;0.20;0.20;;;;;;;10.28;100.00;101452.59;5066493;28;20053;-82
2021/11/19 01:54:14;;;;;;;0.20;0.20;;;;;;;10.36;100.00;101454.88;5074864;28;20488;-82
2021/11/19 01:56:51;;;;;;;0.30;0.30;;;;;;;10.34;100.00;101458.88;5074058;28;20055;-83
2021/11/19 01:59:30;;;;;;;0.30;0.30;;;;;;;10.33;100.00;101465.41;5057411;28;20063;-83
2021/11/19 02:02:08;;;;;;;0.22;0.22;;;;;;;10.33;100.00;101452.63;5071553;28;20492;-84
2021/11/19 02:04:44;;;;;;;0.22;0.22;;;;;;;10.26;100.00;101465.63;5063247;28;20075;-83
2021/11/19 02:07:23;;;;;;;0.30;0.30;;;;;;;10.24;100.00;101461.53;5063663;28;20060;-82
2021/11/19 02:10:20;;;;;;;0.25;0.25;;;;;;;10.26;100.00;101453.91;5065256;28;20405;-83
2021/11/19 02:12:59;;;;;;;0.20;0.20;;;;;;;10.24;100.00;101461.53;5065676;28;20036;-83
2021/11/19 02:15:40;;;;;;;0.30;0.30;;;;;;;10.36;100.00;101452.16;5065427;28;20051;-83
2021/11/19 02:18:11;;;;;;;0.20;0.20;;;;;;;10.27;100.00;101458.28;5059860;28;20131;-83
2021/11/19 02:20:50;;;;;;;0.30;0.30;;;;;;;10.26;100.00;101452.03;5062453;28;20056;-82
2021/11/19 02:23:21;;;;;;;0.20;0.20;;;;;;;10.34;100.00;101461.59;5058632;28;20053;-82
2021/11/19 02:25:59;;;;;;;0.25;0.25;;;;;;;10.33;100.00;101468.13;5072691;28;20388;-82
2021/11/19 02:28:36;;;;;;;0.30;0.30;;;;;;;10.32;100.00;101470.03;5071100;28;20049;-82
2021/11/19 02:31:13;;;;;;;0.30;0.30;;;;;;;10.28;100.00;101471.63;5061118;28;20048;-82
2021/11/19 02:33:45;;;;;;;0.30;0.30;;;;;;;10.34;100.00;101467.06;5064004;28;20053;-81
2021/11/19 02:36:23;;;;;;;0.20;0.20;;;;;;;10.33;100.00;101477.13;5071835;28;20049;-82
2021/11/19 02:39:09;;;;;;;0.30;0.30;;;;;;;10.29;100.00;101486.88;5063811;28;20060;-82
2021/11/19 02:41:47;;;;;;;0.20;0.20;;;;;;;10.36;100.00;101478.53;5068773;28;20045;-83
2021/11/19 02:44:20;;;;;;;0.20;0.20;;;;;;;10.38;100.00;101484.53;5066788;28;20056;-81
2021/11/19 02:46:57;;;;;;;0.30;0.30;;;;;;;10.31;100.00;101476.53;5057494;28;20068;-83
2021/11/19 02:49:31;;;;;;;0.30;0.30;;;;;;;10.37;100.00;101478.28;5067173;28;20064;-83
2021/11/19 02:52:07;;;;;;;0.20;0.20;;;;;;;10.41;100.00;101478.56;5064175;28;20859;-83
2021/11/19 02:54:40;;;;;;;0.20;0.20;;;;;;;10.40;100.00;101478.81;5052462;28;20044;-82
2021/11/19 02:57:15;;;;;;;0.20;0.20;;;;;;;10.40;100.00;101470.66;5063993;28;20048;-82
2021/11/19 02:59:49;;;;;;;0.20;0.20;;;;;;;10.39;100.00;101475.28;5072048;28;20036;-82
2021/11/19 03:02:26;;;;;;;0.30;0.30;;;;;;;10.34;100.00;101481.53;5069646;28;20057;-83
2021/11/19 03:05:08;;;;;;;0.20;0.20;;;;;;;10.44;100.00;101479.94;5061745;28;20044;-82
2021/11/19 03:07:42;;;;;;;0.20;0.20;;;;;;;10.47;100.00;101476.75;5067224;28;20049;-83
2021/11/19 03:10:18;;;;;;;0.20;0.20;;;;;;;10.47;100.00;101476.75;5064067;28;20045;-82
2021/11/19 03:12:47;;;;;;;0.20;0.20;;;;;;;10.36;100.00;101464.94;5061554;28;20053;-83
2021/11/19 03:15:24;;;;;;;0.20;0.20;;;;;;;10.42;100.00;101473.97;5066788;28;20045;-83
2021/11/19 03:17:59;;;;;;;0.20;0.20;;;;;;;10.34;100.00;101469.78;5062069;28;20059;-82
2021/11/19 03:20:34;;;;;;;0.30;0.30;;;;;;;10.33;100.00;101468.13;5070091;28;20051;-82
2021/11/19 03:23:08;;;;;;;0.20;0.20;;;;;;;10.32;100.00;101471.94;5065288;28;20068;-80
2021/11/19 03:25:44;;;;;;;0.30;0.30;;;;;;;10.36;100.00;101473.91;5071463;28;20047;-80
2021/11/19 03:28:20;;;;;;;0.30;0.30;;;;;;;10.35;100.00;101469.53;5053459;28;20048;-81
2021/11/19 03:30:58;;;;;;;0.30;0.30;;;;;;;10.33;100.00;101476.28;5059626;28;20053;-80
2021/11/19 03:33:36;;;;;;;0.20;0.20;;;;;;;10.30;100.00;101477.66;5069720;28;20401;-80
2021/11/19 03:36:07;;;;;;;0.20;0.20;;;;;;;10.37;100.00;101481.00;5065998;28;20378;-80
2021/11/19 03:38:43;;;;;;;0.20;0.20;;;;;;;10.43;100.00;101473.69;5067613;28;20048;-81
2021/11/19 03:41:19;;;;;;;0.22;0.22;;;;;;;10.32;100.00;101478.19;5066644;28;20048;-80
2021/11/19 03:43:55;;;;;;;0.30;0.30;;;;;;;10.36;100.00;101476.63;5076664;28;20512;-80
2021/11/19 03:46:31;;;;;;;0.30;0.30;;;;;;;10.39;100.00;101480.75;5067087;28;20435;-81
2021/11/19 03:49:06;;;;;;;0.20;0.20;;;;;;;10.35;100.00;101476.91;5070448;28;20071;-80
2021/11/19 03:51:45;;;;;;;0.30;0.30;;;;;;;10.45;100.00;101485.13;5069669;28;20044;-81
2021/11/19 03:54:21;;;;;;;0.30;0.30;;;;;;;10.42;100.00;101471.25;5065853;28;20059;-79
2021/11/19 03:56:58;;;;;;;0.30;0.30;;;;;;;10.50;100.00;101481.66;5070522;28;20045;-80
2021/11/19 03:59:31;;;;;;;0.20;0.20;;;;;;;10.41;100.00;101467.69;5074597;28;20044;-80
2021/11/19 04:02:07;;;;;;;0.22;0.22;;;;;;;10.49;100.00;101480.81;5073890;28;20604;-82
2021/11/19 04:04:40;;;;;;;0.22;0.22;;;;;;;10.46;100.00;101475.91;5065621;28;20049;-80
2021/11/19 04:07:16;;;;;;;0.30;0.30;;;;;;;10.44;100.00;101472.63;5060668;28;20045;-80
2021/11/19 04:09:50;;;;;;;0.20;0.20;;;;;;;10.52;100.00;101480.31;5060576;28;20048;-81
2021/11/19 04:12:24;;;;;;;0.17;0.17;;;;;;;10.49;100.00;101499.88;5065746;28;20151;-81
2021/11/19 04:14:57;;;;;;;0.20;0.20;;;;;;;10.52;100.00;101502.09;5063970;28;20052;-80
2021/11/19 04:17:31;;;;;;;0.30;0.30;;;;;;;10.48;100.00;101495.53;5067147;28;20143;-79
2021/11/19 04:20:01;;;;;;;0.20;0.20;;;;;;;10.52;100.00;101496.66;5061050;28;20517;-81
2021/11/19 04:22:34;;;;;;;0.20;0.20;;;;;;;10.59;100.00;101499.13;5071643;28;20051;-81
2021/11/19 04:25:10;;;;;;;0.28;0.28;;;;;;;10.49;100.00;101482.72;5067164;28;20048;-81
2021/11/19 04:27:40;;;;;;;0.20;0.20;;;;;;;10.44;100.00;101488.13;5067187;28;20980;-80
2021/11/19 04:30:37;;;;;;;0.20;0.20;;;;;;;10.53;100.00;101497.47;5065110;28;20040;-80
2021/11/19 04:33:06;;;;;;;0.20;0.20;;;;;;;10.46;100.00;101484.06;5065026;28;20068;-81
2021/11/19 04:35:42;;;;;;;0.30;0.30;;;;;;;10.56;100.00;101483.31;5064015;28;20417;-80
2021/11/19 04:38:10;;;;;;;0.25;0.25;;;;;;;10.51;100.00;101494.19;5065821;28;20045;-81
2021/11/19 04:40:44;;;;;;;0.30;0.30;;;;;;;10.53;100.00;101484.66;5062978;28;20045;-80
2021/11/19 04:43:15;;;;;;;0.30;0.30;;;;;;;10.53;100.00;101487.38;5066744;28;20056;-80
2021/11/19 04:45:49;;;;;;;0.20;0.20;;;;;;;10.55;100.00;101484.44;5067643;28;20044;-80
2021/11/19 04:48:18;;;;;;;0.20;0.20;;;;;;;10.53;100.00;101495.53;5074155;28;20057;-80
2021/11/19 04:50:53;;;;;;;0.20;0.20;;;;;;;10.55;100.00;101487.97;5062395;28;20041;-80
2021/11/19 04:53:27;;;;;;;0.20;0.20;;;;;;;10.49;100.00;101493.63;5062793;28;20048;-81
2021/11/19 04:56:02;;;;;;;0.22;0.22;;;;;;;10.54;100.00;101499.91;5078545;28;20055;-79
2021/11/19 04:58:32;;;;;;;0.20;0.20;;;;;;;10.42;100.00;101476.69;5069148;28;20499;-80
2021/11/19 05:01:09;;;;;;;0.20;0.20;;;;;;;10.51;100.00;101503.16;5066212;28;20057;-80
2021/11/19 05:03:57;;;;;;;0.20;0.20;;;;;;;10.54;100.00;101507.28;5064715;28;20036;-80
2021/11/19 05:06:32;;;;;;;0.20;0.20;;;;;;;10.46;100.00;101508.56;5064083;28;20060;-81
2021/11/19 05:09:03;;;;;;;0.28;0.28;;;;;;;10.38;100.00;101517.19;5062016;28;20059;-79
2021/11/19 05:11:35;;;;;;;0.20;0.20;;;;;;;10.33;100.00;101508.94;5068995;28;20044;-81
2021/11/19 05:14:11;;;;;;;0.20;0.20;;;;;;;10.31;100.00;101514.63;5065452;28;20381;-81
2021/11/19 05:16:39;;;;;;;0.20;0.20;;;;;;;10.24;100.00;101511.31;5071020;28;20044;-80
2021/11/19 05:19:13;;;;;;;0.20;0.20;;;;;;;10.18;100.00;101504.19;5069025;28;20049;-81
2021/11/19 05:21:44;;;;;;;0.20;0.20;;;;;;;10.14;100.00;101492.19;5069167;28;20063;-81
2021/11/19 05:24:18;;;;;;;0.20;0.20;;;;;;;10.21;100.00;101501.75;5064812;28;20049;-80
2021/11/19 05:26:48;;;;;;;0.30;0.30;;;;;;;10.15;100.00;101496.53;5066369;28;20056;-81
2021/11/19 05:29:22;;;;;;;0.20;0.20;;;;;;;10.16;100.00;101482.69;5068368;28;20040;-80
2021/11/19 05:31:56;;;;;;;0.20;0.20;;;;;;;10.11;100.00;101482.63;5069878;28;20056;-80
2021/11/19 05:34:29;;;;;;;0.20;0.20;;;;;;;10.11;100.00;101479.91;5072933;28;20048;-80
2021/11/19 05:37:05;;;;;;;0.20;0.20;;;;;;;10.10;100.00;101477.44;5069166;28;20040;-80
2021/11/19 05:39:33;;;;;;;0.20;0.20;;;;;;;10.13;100.00;101466.88;5086324;28;20056;-80
2021/11/19 05:42:02;;;;;;;0.20;0.20;;;;;;;10.09;100.00;101459.50;5065284;28;20060;-80
2021/11/19 05:44:39;;;;;;;0.28;0.28;;;;;;;10.14;100.00;101471.22;5071583;28;20067;-80
2021/11/19 05:47:28;;;;;;;0.20;0.20;;;;;;;10.12;100.00;101478.00;5079868;28;20056;-80
2021/11/19 05:50:11;;;;;;;0.30;0.30;;;;;;;10.15;100.00;101486.47;5066779;28;20056;-80
2021/11/19 05:52:47;;;;;;;0.30;0.30;;;;;;;10.14;100.00;101475.88;5068203;28;20052;-81
2021/11/19 05:55:22;;;;;;;0.20;0.20;;;;;;;10.17;100.00;101473.44;5066074;28;20060;-80
2021/11/19 05:57:51;;;;;;;0.20;0.20;;;;;;;10.17;100.00;101481.59;5078201;28;20054;-80
2021/11/19 06:00:27;;;;;;;0.20;0.20;;;;;;;10.25;100.00;101477.59;5073861;28;20060;-81
2021/11/19 06:03:05;;;;;;;0.30;0.30;;;;;;;10.18;100.00;101479.72;5064072;28;20053;-81
2021/11/19 06:05:52;;;;;;;;;;;;;;;10.22;100.00;101478.13;5068945;28;20059;-80
2021/11/19 06:08:28;;;;;;;0.30;0.30;;;;;;;10.14;100.00;101487.56;5063710;28;19932;-80
2021/11/19 06:11:04;;;;;;;0.28;0.28;;;;;;;10.19;100.00;101495.78;5065744;28;20056;-81
2021/11/19 06:13:43;;;;;;;0.30;0.30;;;;;;;10.19;100.00;101497.66;5066223;28;20048;-80
2021/11/19 06:16:16;;;;;;;0.28;0.28;;;;;;;10.25;100.00;101476.75;5066231;28;20048;-80
2021/11/19 06:18:51;;;;;;;0.30;0.30;;;;;;;10.24;100.00;101484.09;5068637;28;20485;-80
2021/11/19 06:21:27;;;;;;;0.30;0.30;;;;;;;10.19;100.00;101489.50;5072490;28;20044;-80
2021/11/19 06:24:07;;;;;;;0.20;0.20;;;;;;;10.19;100.00;101489.50;5062616;28;20513;-81
2021/11/19 06:26:43;;;;;;;0.20;0.20;;;;;;;10.13;100.00;101494.06;5072813;28;20044;-81
2021/11/19 06:29:14;;;;;;;0.20;0.20;;;;;;;10.14;100.00;101494.91;5064052;28;20049;-80
2021/11/19 06:31:46;;;;;;;0.30;0.30;;;;;;;10.20;100.00;101494.69;5060140;28;20049;-81
2021/11/19 06:34:20;;;;;;;0.20;0.20;;;;;;;10.24;100.00;101499.63;5065934;28;20052;-80
2021/11/19 06:36:55;;;;;;;0.30;0.30;;;;;;;10.15;100.00;101493.81;5060180;28;20049;-80
2021/11/19 06:39:26;;;;;;;0.20;0.20;;;;;;;10.21;100.00;101506.38;5076442;28;20493;-80
2021/11/19 06:42:02;;;;;;;0.20;0.20;;;;;;;10.24;100.00;101515.94;5069605;28;20045;-81
2021/11/19 06:44:56;;;;;;;0.30;0.30;;;;;;;10.25;100.00;101498.53;5063558;28;20523;-80
2021/11/19 06:47:40;;;;;;;0.20;0.20;;;;;;;10.30;100.00;101509.47;5064129;28;20156;-81
2021/11/19 06:50:29;;;;;;;0.30;0.30;;;;;;;10.26;100.00;101508.31;5063276;28;20059;-82
2021/11/19 06:53:17;;;;;;;0.30;0.30;;;;;;;10.32;100.00;101520.91;5067191;28;20051;-80
2021/11/19 06:56:12;;;;;;;0.30;0.30;;;;;;;10.36;100.00;101505.75;5059338;28;20063;-79
2021/11/19 06:58:58;;;;;;;0.20;0.20;;;;;;;10.41;100.00;101504.97;5067293;28;20485;-80
2021/11/19 07:01:32;;;;;;;0.20;0.20;;;;;;;10.40;100.00;101515.03;5065726;28;20067;-80
2021/11/19 07:04:06;;;;;;;0.20;0.20;;;;;;;10.43;100.00;101524.59;5071754;28;20053;-80
2021/11/19 07:06:36;;;;;;;0.28;0.28;;;;;;;10.38;100.00;101518.03;5063662;28;20055;-81
2021/11/19 07:09:06;;;;;;;0.20;0.20;;;;;;;10.41;100.00;101519.38;5086158;28;20056;-81
2021/11/19 07:11:36;;;;;;;0.20;0.20;;;;;;;10.35;100.00;101520.44;5070693;28;20049;-81
2021/11/19 07:14:10;;;;;;;0.20;0.20;;;;;;;10.31;100.00;101519.28;5070811;28;20059;-81
2021/11/19 07:16:43;;;;;;;0.20;0.20;;;;;;;10.39;100.00;101521.56;5071440;28;20040;-81
2021/11/19 07:19:20;;;;;;;0.20;0.20;;;;;;;10.38;100.00;101525.34;5070986;28;20059;-82
2021/11/19 07:21:53;;;;;;;0.30;0.30;;;;;;;10.40;100.00;101525.94;5070331;28;20072;-80
2021/11/19 07:24:27;;;;;;;0.20;0.20;;;;;;;10.37;100.00;101526.41;5063094;28;20040;-80
2021/11/19 07:27:09;;;;;;;0.30;0.30;;;;;;;10.38;100.00;101522.63;5065526;28;20045;-81
2021/11/19 07:29:37;;;;;;;0.20;0.20;;;;;;;10.48;100.00;101532.78;5061742;28;20040;-80
2021/11/19 07:32:24;;;;;;;0.30;0.30;;;;;;;10.46;100.00;101533.03;5059704;28;20051;-81
2021/11/19 07:35:14;;;;;;;0.20;0.20;;;;;;;10.52;100.00;101540.19;5062550;28;20044;-81
2021/11/19 07:38:06;;;;;;;0.28;0.28;;;;;;;10.49;100.00;101534.44;5069985;28;20063;-80
2021/11/19 07:40:54;;;;;;;0.25;0.25;;;;;;;10.52;100.00;101529.31;5064701;28;20049;-81
2021/11/19 07:43:38;;;;;;;0.30;0.30;;;;;;;10.47;100.00;101544.78;5081393;28;20063;-81
2021/11/19 07:46:21;;;;;;;0.30;0.30;;;;;;;10.57;100.00;101538.59;5052152;28;20067;-81
2021/11/19 07:49:03;;;;;;;0.30;0.30;;;;;;;10.48;100.00;101535.50;5060050;28;20064;-81
2021/11/19 07:51:44;;;;;;;0.30;0.30;;;;;;;10.57;100.00;101539.41;5053652;28;20053;-81
2021/11/19 07:54:17;;;;;;;0.25;0.25;;;;;;;10.54;100.00;101543.47;5053401;28;20045;-82
2021/11/19 07:56:46;;;;;;;0.20;0.20;;;;;;;10.52;100.00;101525.75;5058332;28;20063;-80
2021/11/19 07:59:25;;;;;;;0.20;0.20;;;;;;;10.64;100.00;101525.59;5058371;28;20052;-82
2021/11/19 08:01:59;;;;;;;0.28;0.28;;;;;;;10.61;100.00;101532.38;5055035;28;20053;-81
2021/11/19 08:04:34;;;;;;;0.30;0.30;;;;;;;10.64;100.00;101545.44;5053535;28;20048;-84
2021/11/19 08:07:16;;;;;;;0.30;0.30;;;;;;;10.63;100.00;101543.00;5056558;28;20071;-81
2021/11/19 08:09:52;;;;;;;0.30;0.30;;;;;;;10.63;100.00;101540.28;5067518;28;20049;-83
2021/11/19 08:12:42;;;;;;;0.20;0.20;;;;;;;10.63;100.00;101534.81;5056050;28;20060;-84
2021/11/19 08:15:26;;;;;;;0.30;0.30;;;;;;;10.64;100.00;101531.84;5055979;28;20056;-82
2021/11/19 08:18:02;;;;;;;0.28;0.28;;;;;;;10.55;100.00;101511.63;5057739;28;20552;-79
2021/11/19 08:20:40;;;;;;;0.20;0.20;;;;;;;10.70;100.00;101539.00;5052938;28;20047;-81
2021/11/19 08:23:16;;;;;;;0.30;0.30;;;;;;;10.66;100.00;101523.41;5049440;28;20044;-83
2021/11/19 08:25:50;;;;;;;0.22;0.22;;;;;;;10.80;100.00;101543.69;5047138;28;20056;-82
2021/11/19 08:28:20;;;;;;;0.30;0.30;;;;;;;10.72;100.00;101533.28;5045448;28;20059;-81
2021/11/19 08:30:51;;;;;;;0.20;0.20;;;;;;;10.79;100.00;101547.47;5050451;28;20435;-82
2021/11/19 08:33:24;;;;;;;0.30;0.30;;;;;;;10.75;100.00;101543.63;5048696;28;20082;-83
2021/11/19 08:35:52;;;;;;;0.20;0.20;;;;;;;10.71;100.00;101545.25;5048791;28;20071;-83
2021/11/19 08:38:27;;;;;;;0.30;0.30;;;;;;;10.78;100.00;101553.19;5045709;28;20055;-81
2021/11/19 08:41:01;;;;;;;0.40;0.20;;;;;;;10.70;100.00;101549.03;5049370;28;20844;-81
2021/11/19 08:43:37;;;;;;;0.20;0.20;;;;;;;10.70;100.00;101541.72;5051837;28;20075;-81
2021/11/19 08:46:16;;;;;;;0.20;0.20;;;;;;;10.71;100.00;101537.06;5042583;28;20094;-82
2021/11/19 08:48:46;;;;;;;0.30;0.30;;;;;;;10.73;100.00;101551.25;5045381;28;20052;-83
2021/11/19 08:51:22;;;;;;;0.30;0.30;;;;;;;10.70;100.00;101549.88;5054734;28;20052;-83
2021/11/19 08:53:58;;;;;;;0.25;0.25;;;;;;;10.80;100.00;101551.03;5052493;28;20053;-82
2021/11/19 08:56:29;;;;;;;0.20;0.20;;;;;;;10.82;100.00;101543.44;5051415;28;20087;-83
2021/11/19 08:58:58;;;;;;;0.30;0.30;;;;;;;10.85;100.00;101567.41;5046394;28;20049;-83
2021/11/19 09:01:33;;;;;;;0.20;0.20;;;;;;;10.84;100.00;101552.13;5049306;28;21814;-82
2021/11/19 09:04:06;;;;;;;0.20;0.20;;;;;;;10.87;100.00;101551.66;5046841;28;20056;-81
2021/11/19 09:06:40;;;;;;;0.20;0.20;;;;;;;10.91;100.00;101565.53;5048104;28;20060;-84
2021/11/19 09:09:14;;;;;;;0.30;0.30;;;;;;;10.89;100.00;101560.34;5049471;28;20681;-82
2021/11/19 09:11:47;;;;;;;0.30;0.30;;;;;;;10.88;100.00;101567.72;5053392;28;20059;-84
2021/11/19 09:14:17;;;;;;;0.20;0.20;;;;;;;10.87;100.00;101562.53;5049311;28;20766;-83
2021/11/19 09:16:58;;;;;;;0.25;0.25;;;;;;;10.82;100.00;101562.50;5049756;28;20049;-82
2021/11/19 09:19:31;;;;;;;0.20;0.20;;;;;;;10.69;100.00;101556.38;5048716;28;20063;-80
2021/11/19 09:22:18;;;;;;;0.20;0.20;;;;;;;10.72;100.00;101579.56;5055764;28;20582;-83
2021/11/19 09:24:47;;;;;;;0.30;0.30;;;;;;;10.80;100.00;101570.91;5052246;28;20048;-82
2021/11/19 09:27:21;;;;;;;0.20;0.20;;;;;;;10.75;100.00;101565.41;5048879;28;20110;-81
2021/11/19 09:29:59;;;;;;;0.20;0.20;;;;;;;10.80;100.00;101581.81;5056928;28;20485;-82
2021/11/19 09:32:29;;;;;;;0.20;0.20;;;;;;;10.79;100.00;101573.91;5050829;28;20428;-81
2021/11/19 09:35:02;;;;;;;0.30;0.30;;;;;;;10.77;100.00;101567.88;5055383;28;20068;-82
2021/11/19 09:37:30;;;;;;;0.30;0.30;;;;;;;10.84;100.00;101573.94;5050535;28;20053;-81
2021/11/19 09:39:59;;;;;;;0.20;0.20;;;;;;;10.82;100.00;101560.56;5054710;28;20061;-82
2021/11/19 09:42:38;;;;;;;0.30;0.30;;;;;;;10.89;100.00;101582.94;5054538;28;20052;-82
2021/11/19 09:45:53;;;;;;;0.20;0.20;;;;;;;10.99;100.00;101589.56;5059513;28;20051;-82
2021/11/19 09:48:40;;;;;;;0.20;0.20;;;;;;;10.89;100.00;101568.53;5060163;28;20678;-82
2021/11/19 09:51:34;;;;;;;0.30;0.30;;;;;;;10.97;100.00;101594.47;5058072;28;20036;-82
2021/11/19 09:54:37;;;;;;;0.20;0.20;;;;;;;11.04;100.00;101584.19;5051409;28;20060;-80
2021/11/19 09:57:36;;;;;;;0.20;0.20;;;;;;;10.92;100.00;101595.22;5029002;28;20056;-82
2021/11/19 10:00:15;;;;;;;0.20;0.20;;;;;;;10.88;100.00;101585.94;5046362;28;20040;-81
2021/11/19 10:03:25;;;;;;;0.20;0.20;;;;;;;11.01;100.00;101606.50;5054299;28;20783;-83
2021/11/19 10:06:04;;;;;;;0.20;0.20;;;;;;;10.94;100.00;101584.06;5057568;28;20056;-81
2021/11/19 10:08:54;;;;;;;;;;;;;;;11.02;100.00;101598.06;5054211;28;20049;-82
2021/11/19 10:11:36;;;;;;;0.20;0.20;;;;;;;10.96;100.00;101593.63;5054731;28;19935;-80
2021/11/19 10:14:35;;;;;;;0.20;0.20;;;;;;;10.94;100.00;101598.53;5052810;28;20057;-80
2021/11/19 10:17:09;;;;;;;0.20;0.20;;;;;;;11.05;100.00;101599.44;5052649;28;20059;-81
2021/11/19 10:19:46;;;;;;;0.20;0.20;;;;;;;10.99;100.00;101603.19;5052273;28;20053;-83
2021/11/19 10:22:27;;;;;;;0.30;0.30;;;;;;;10.95;100.00;101604.78;5054352;28;20072;-82
2021/11/19 10:25:06;;;;;;;0.30;0.30;;;;;;;10.86;100.00;101577.22;5060900;28;20061;-82
2021/11/19 10:27:37;;;;;;;0.20;0.20;;;;;;;10.94;100.00;101595.81;5057340;28;20063;-82
2021/11/19 10:30:29;;;;;;;0.20;0.20;;;;;;;10.91;100.00;101590.06;5047118;28;20825;-84
2021/11/19 10:33:09;;;;;;;0.22;0.22;;;;;;;10.97;100.00;101598.00;5043137;28;20057;-81
2021/11/19 10:35:53;;;;;;;0.20;0.20;;;;;;;10.94;100.00;101590.38;5063703;28;20063;-82
2021/11/19 10:38:56;;;;;;;0.20;0.20;;;;;;;10.89;100.00;101579.41;5043089;28;20049;-82
2021/11/19 10:42:05;;;;;;;0.20;0.20;;;;;;;10.92;100.00;101600.69;5051455;28;20591;-84
2021/11/19 10:45:01;;;;;;;0.20;0.20;;;;;;;10.96;100.00;101601.00;5044395;28;20052;-81
2021/11/19 10:48:03;;;;;;;0.20;0.20;;;;;;;10.89;100.00;101598.47;5049558;28;20060;-82
2021/11/19 10:51:17;;;;;;;0.20;0.20;;;;;;;10.98;100.00;101598.81;5046468;28;20420;-82
2021/11/19 10:54:19;;;;;;;0.20;0.20;;;;;;;10.92;100.00;101597.16;5044414;28;20056;-83
2021/11/19 10:57:03;;;;;;;0.20;0.20;;;;;;;10.88;100.00;101610.44;5046935;28;20059;-82
2021/11/19 10:59:40;;;;;;;0.20;0.20;;;;;;;10.93;100.00;101593.34;5047420;28;20404;-83
2021/11/19 11:02:27;;;;;;;0.20;0.20;;;;;;;11.01;100.00;101596.41;5041955;28;20060;-81
2021/11/19 11:05:02;;;;;;;0.30;0.30;;;;;;;10.97;100.00;101592.56;5045362;28;20048;-82
2021/11/19 11:07:37;;;;;;;0.20;0.20;;;;;;;11.01;100.00;101601.84;5049781;28;20049;-83
2021/11/19 11:10:14;;;;;;;0.20;0.20;;;;;;;11.01;100.00;101601.03;5048643;28;20059;-83
2021/11/19 11:12:52;;;;;;;0.20;0.20;;;;;;;11.06;100.00;101598.34;5048499;28;20089;-83
2021/11/19 11:15:29;;;;;;;0.20;0.20;;;;;;;10.96;100.00;101598.28;5045133;28;20052;-82
2021/11/19 11:18:18;;;;;;;;;;;;;;;10.97;100.00;101595.28;5042625;28;20063;-82
2021/11/19 11:21:02;;;;;;;0.20;0.20;;;;;;;11.03;100.00;101604.31;5044354;28;19943;-82
2021/11/19 11:23:36;;;;;;;0.20;0.20;;;;;;;10.93;100.00;101585.19;5035023;28;20064;-83
2021/11/19 11:26:16;;;;;;;0.20;0.20;;;;;;;11.03;100.00;101593.41;5038667;28;21331;-83
2021/11/19 11:28:50;;;;;;;0.20;0.20;;;;;;;11.12;100.00;101596.50;5051374;28;20052;-84
2021/11/19 11:31:43;;;;;;;0.20;0.20;;;;;;;11.07;100.00;101597.25;5051029;28;20056;-83
2021/11/19 11:34:24;;;;;;;0.20;0.20;;;;;;;11.06;100.00;101588.28;5050172;28;20056;-85
2021/11/19 11:37:12;;;;;;;0.30;0.30;;;;;;;11.08;100.00;101589.94;5051893;28;20048;-83
2021/11/19 11:39:57;;;;;;;0.20;0.20;;;;;;;11.14;100.00;101591.59;5052371;28;20056;-82
2021/11/19 11:42:28;;;;;;;0.30;0.30;;;;;;;11.22;100.00;101599.28;5051784;28;20052;-81
2021/11/19 11:45:23;;;;;;;0.30;0.30;;;;;;;11.29;100.00;101597.16;5054623;28;20520;-83
2021/11/19 11:48:11;;;;;;;0.20;0.20;;;;;;;11.20;100.00;101598.75;5051362;28;20693;-83
2021/11/19 11:50:51;;;;;;;0.20;0.20;;;;;;;11.26;100.00;101608.59;5053722;28;20051;-83
2021/11/19 11:53:33;;;;;;;0.20;0.20;;;;;;;11.31;100.00;101605.06;5055105;28;20036;-83
2021/11/19 11:56:23;;;;;;;0.25;0.25;;;;;;;11.33;100.00;101606.44;5058478;28;20044;-83
2021/11/19 11:59:01;;;;;;;0.20;0.20;;;;;;;11.27;100.00;101607.50;5051554;28;20071;-80
2021/11/19 12:01:42;;;;;;;0.20;0.20;;;;;;;11.28;100.00;101609.13;5055757;28;20067;-81
2021/11/19 12:04:23;;;;;;;0.20;0.20;;;;;;;11.32;100.00;101593.09;5050252;28;20048;-83
2021/11/19 12:06:56;;;;;;;0.20;0.20;;;;;;;11.28;100.00;101606.41;5042779;28;20048;-82
2021/11/19 12:09:35;;;;;;;0.20;0.20;;;;;;;11.27;100.00;101604.78;5048822;28;20036;-82